createdAt,value
2023-06-20T00:00:21.691Z,16.21
2023-06-20T00:02:50.354Z,16.20
2023-06-20T00:05:19.380Z,16.21
2023-06-20T00:07:47.970Z,16.17
2023-06-20T00:10:16.494Z,16.13
2023-06-20T00:12:44.735Z,16.06
2023-06-20T00:15:13.412Z,16.03
2023-06-20T00:17:43.393Z,16.06
2023-06-20T00:20:12.438Z,16.04
2023-06-20T00:22:40.917Z,16.02
2023-06-20T00:25:10.067Z,16.00
2023-06-20T00:27:38.613Z,15.93
2023-06-20T00:30:10.164Z,15.86
2023-06-20T00:32:38.827Z,15.87
2023-06-20T00:35:09.430Z,15.87
2023-06-20T00:37:39.370Z,15.86
2023-06-20T00:40:09.235Z,15.82
2023-06-20T00:42:37.733Z,15.78
2023-06-20T00:45:30.297Z,15.79
2023-06-20T00:48:01.087Z,15.86
2023-06-20T00:50:31.726Z,15.86
2023-06-20T00:53:02.447Z,15.84
2023-06-20T00:55:32.870Z,15.80
2023-06-20T00:58:03.458Z,15.77
2023-06-20T01:00:34.700Z,15.78
2023-06-20T01:03:08.144Z,15.83
2023-06-20T01:05:39.123Z,15.86
2023-06-20T01:08:16.005Z,15.89
2023-06-20T01:11:09.570Z,15.88
2023-06-20T01:13:50.482Z,15.94
2023-06-20T01:16:30.488Z,15.99
2023-06-20T01:19:05.880Z,15.79
2023-06-20T01:21:43.878Z,15.96
2023-06-20T01:24:20.128Z,15.83
2023-06-20T01:26:55.044Z,15.80
2023-06-20T01:29:34.182Z,15.82
2023-06-20T01:32:07.559Z,15.78
2023-06-20T01:34:42.019Z,15.77
2023-06-20T01:37:16.421Z,15.77
2023-06-20T01:39:49.482Z,15.78
2023-06-20T01:42:20.939Z,15.73
2023-06-20T01:44:54.828Z,15.76
2023-06-20T01:47:25.448Z,15.72
2023-06-20T01:49:55.614Z,15.67
2023-06-20T01:52:26.291Z,15.58
2023-06-20T01:54:59.035Z,15.57
2023-06-20T01:57:29.816Z,15.53
2023-06-20T01:59:59.998Z,15.50
2023-06-20T02:02:30.873Z,15.44
2023-06-20T02:05:00.725Z,15.46
2023-06-20T02:07:32.265Z,15.44
2023-06-20T02:10:05.993Z,15.38
2023-06-20T02:12:37.711Z,15.35
2023-06-20T02:15:08.472Z,15.36
2023-06-20T02:17:39.379Z,15.34
2023-06-20T02:20:09.306Z,15.30
2023-06-20T02:22:38.941Z,15.30
2023-06-20T02:25:14.404Z,15.31
2023-06-20T02:27:44.663Z,15.38
2023-06-20T02:30:17.078Z,15.43
2023-06-20T02:32:46.329Z,15.40
2023-06-20T02:35:19.994Z,15.31
2023-06-20T02:37:51.562Z,15.33
2023-06-20T02:40:25.994Z,15.29
2023-06-20T02:42:55.033Z,15.26
2023-06-20T02:45:23.984Z,15.24
2023-06-20T02:48:04.934Z,15.23
2023-06-20T02:50:44.248Z,15.23
2023-06-20T02:53:22.195Z,15.21
2023-06-20T02:55:59.449Z,15.18
2023-06-20T02:58:29.461Z,15.17
2023-06-20T03:01:01.557Z,15.14
2023-06-20T03:03:32.473Z,15.16
2023-06-20T03:06:02.077Z,15.16
2023-06-20T03:08:32.096Z,15.25
2023-06-20T03:11:03.505Z,15.32
2023-06-20T03:13:32.433Z,15.35
2023-06-20T03:16:01.966Z,15.33
2023-06-20T03:18:32.110Z,15.30
2023-06-20T03:21:00.959Z,15.29
2023-06-20T03:23:29.470Z,15.28
2023-06-20T03:25:58.165Z,15.29
2023-06-20T03:28:28.425Z,15.32
2023-06-20T03:30:58.979Z,15.35
2023-06-20T03:33:29.446Z,15.41
2023-06-20T03:35:58.755Z,15.44
2023-06-20T03:38:27.846Z,15.47
2023-06-20T03:40:56.536Z,15.54
2023-06-20T03:43:26.073Z,15.53
2023-06-20T03:45:56.084Z,15.58
2023-06-20T03:48:24.461Z,15.65
2023-06-20T03:50:52.993Z,15.69
2023-06-20T03:53:21.838Z,15.73
2023-06-20T03:55:50.598Z,15.78
2023-06-20T03:58:19.855Z,15.84
2023-06-20T04:00:49.005Z,15.90
2023-06-20T04:03:19.192Z,15.99
2023-06-20T04:05:47.839Z,16.08
2023-06-20T04:08:16.350Z,16.19
2023-06-20T04:10:45.456Z,16.28
2023-06-20T04:13:16.937Z,16.40
2023-06-20T04:15:46.725Z,16.52
2023-06-20T04:18:15.556Z,16.63
2023-06-20T04:20:45.567Z,16.75
2023-06-20T04:23:14.513Z,16.82
2023-06-20T04:25:42.876Z,16.93
2023-06-20T04:28:12.423Z,17.03
2023-06-20T04:31:01.484Z,17.16
2023-06-20T04:33:30.803Z,17.28
2023-06-20T04:36:02.871Z,17.40
2023-06-20T04:38:38.535Z,17.50
2023-06-20T04:41:07.674Z,17.60
2023-06-20T04:43:37.040Z,17.66
2023-06-20T04:46:06.013Z,17.74
2023-06-20T04:48:37.000Z,17.82
2023-06-20T04:51:09.184Z,17.91
2023-06-20T04:53:38.311Z,17.96
2023-06-20T04:56:08.484Z,18.01
2023-06-20T04:58:38.192Z,18.08
2023-06-20T05:01:06.724Z,18.19
2023-06-20T05:03:35.444Z,18.28
2023-06-20T05:06:04.166Z,18.36
2023-06-20T05:08:34.138Z,18.42
2023-06-20T05:11:04.097Z,18.51
2023-06-20T05:13:33.839Z,18.57
2023-06-20T05:16:02.419Z,18.64
2023-06-20T05:18:30.935Z,18.70
2023-06-20T05:20:59.507Z,18.78
2023-06-20T05:23:29.010Z,18.84
2023-06-20T05:25:59.170Z,18.93
2023-06-20T05:28:27.781Z,19.05
2023-06-20T05:30:56.309Z,19.14
2023-06-20T05:33:25.750Z,19.22
2023-06-20T05:35:55.806Z,19.35
2023-06-20T05:38:24.844Z,19.47
2023-06-20T05:40:55.950Z,19.59
2023-06-20T05:43:25.972Z,19.72
2023-06-20T05:45:54.459Z,19.86
2023-06-20T05:48:25.318Z,20.00
2023-06-20T05:50:54.667Z,20.15
2023-06-20T05:53:24.574Z,20.29
2023-06-20T05:55:53.774Z,20.41
2023-06-20T05:58:22.521Z,20.52
2023-06-20T06:00:52.746Z,20.61
2023-06-20T06:03:21.343Z,20.74
2023-06-20T06:05:52.775Z,20.84
2023-06-20T06:08:21.784Z,20.96
2023-06-20T06:10:50.321Z,21.20
2023-06-20T06:13:18.819Z,21.37
2023-06-20T06:15:59.235Z,21.51
2023-06-20T06:18:31.801Z,21.57
2023-06-20T06:21:02.596Z,21.63
2023-06-20T06:23:31.971Z,21.68
2023-06-20T06:26:01.626Z,21.67
2023-06-20T06:28:30.385Z,21.75
2023-06-20T06:31:01.510Z,21.81
2023-06-20T06:33:31.561Z,21.87
2023-06-20T06:36:01.866Z,21.96
2023-06-20T06:38:30.422Z,22.14
2023-06-20T06:41:00.567Z,22.35
2023-06-20T06:43:29.126Z,22.56
2023-06-20T06:46:01.210Z,22.75
2023-06-20T06:48:29.735Z,22.96
2023-06-20T06:51:00.248Z,23.16
2023-06-20T06:53:28.759Z,23.34
2023-06-20T06:55:57.561Z,23.50
2023-06-20T06:58:26.250Z,23.68
2023-06-20T07:00:56.752Z,23.82
2023-06-20T07:03:25.800Z,23.95
2023-06-20T07:05:55.162Z,24.14
2023-06-20T07:08:25.380Z,24.27
2023-06-20T07:10:54.663Z,24.42
2023-06-20T07:13:25.682Z,24.56
2023-06-20T07:15:54.230Z,24.72
2023-06-20T07:18:22.742Z,24.91
2023-06-20T07:20:51.494Z,24.98
2023-06-20T07:23:20.012Z,25.09
2023-06-20T07:25:49.977Z,25.21
2023-06-20T07:28:18.605Z,25.36
2023-06-20T07:30:47.128Z,25.52
2023-06-20T07:33:15.713Z,25.64
2023-06-20T07:35:44.346Z,25.75
2023-06-20T07:38:12.856Z,25.88
2023-06-20T07:40:42.030Z,26.03
2023-06-20T07:43:12.110Z,26.19
2023-06-20T07:45:40.724Z,26.29
2023-06-20T07:48:09.245Z,26.39
2023-06-20T07:50:38.009Z,26.43
2023-06-20T07:53:06.803Z,26.49
2023-06-20T07:55:35.663Z,26.49
2023-06-20T07:58:05.443Z,26.62
2023-06-20T08:00:35.230Z,26.84
2023-06-20T08:03:03.952Z,26.95
2023-06-20T08:05:32.450Z,27.05
2023-06-20T08:08:01.038Z,27.17
2023-06-20T08:10:29.793Z,27.20
2023-06-20T08:12:58.300Z,27.16
2023-06-20T08:15:27.118Z,27.24
2023-06-20T08:17:57.221Z,27.23
2023-06-20T08:20:25.852Z,27.29
2023-06-20T08:22:54.135Z,27.43
2023-06-20T08:25:22.997Z,27.52
2023-06-20T08:27:56.258Z,27.63
2023-06-20T08:30:34.544Z,27.81
2023-06-20T08:33:04.880Z,27.91
2023-06-20T08:35:33.446Z,27.94
2023-06-20T08:38:01.959Z,28.00
2023-06-20T08:40:32.048Z,28.12
2023-06-20T08:43:00.718Z,28.28
2023-06-20T08:45:29.784Z,28.34
2023-06-20T08:47:59.952Z,28.41
2023-06-20T08:50:30.894Z,28.58
2023-06-20T08:53:03.098Z,28.59
2023-06-20T08:55:33.071Z,28.69
2023-06-20T08:58:04.502Z,28.66
2023-06-20T09:00:34.519Z,28.70
2023-06-20T09:03:05.909Z,28.81
2023-06-20T09:05:41.907Z,28.90
2023-06-20T09:08:15.054Z,28.92
2023-06-20T09:10:45.239Z,29.04
2023-06-20T09:13:14.654Z,29.23
2023-06-20T09:15:43.585Z,29.28
2023-06-20T09:18:16.093Z,29.32
2023-06-20T09:20:46.888Z,29.23
2023-06-20T09:23:29.493Z,28.95
2023-06-20T09:25:58.633Z,28.74
2023-06-20T09:28:35.559Z,28.78
2023-06-20T09:31:04.352Z,28.77
2023-06-20T09:33:35.916Z,28.47
2023-06-20T09:36:16.765Z,28.29
2023-06-20T09:38:45.847Z,28.55
2023-06-20T09:41:18.266Z,28.87
2023-06-20T09:43:47.077Z,29.15
2023-06-20T09:46:15.899Z,29.40
2023-06-20T09:48:47.232Z,29.67
2023-06-20T09:51:17.521Z,29.89
2023-06-20T09:53:54.401Z,30.02
2023-06-20T09:56:23.955Z,30.25
2023-06-20T09:58:54.038Z,30.28
2023-06-20T10:01:23.806Z,30.31
2023-06-20T10:03:53.299Z,30.37
2023-06-20T10:06:24.142Z,30.54
2023-06-20T10:08:53.505Z,30.72
2023-06-20T10:11:23.772Z,30.90
2023-06-20T10:13:52.937Z,31.04
2023-06-20T10:16:21.602Z,31.12
2023-06-20T10:18:50.528Z,31.08
2023-06-20T10:21:39.012Z,30.74
2023-06-20T10:24:09.182Z,30.61
2023-06-20T10:26:37.917Z,30.67
2023-06-20T10:29:06.346Z,30.81
2023-06-20T10:32:05.432Z,30.90
2023-06-20T10:34:38.047Z,31.03
2023-06-20T10:37:35.863Z,31.11
2023-06-20T10:40:08.030Z,30.78
2023-06-20T10:42:41.228Z,30.22
2023-06-20T10:45:22.871Z,29.67
2023-06-20T10:47:52.012Z,29.32
2023-06-20T10:50:21.375Z,29.46
2023-06-20T10:52:52.898Z,29.87
2023-06-20T10:55:27.693Z,30.37
2023-06-20T10:57:57.645Z,30.60
2023-06-20T11:00:27.005Z,30.51
2023-06-20T11:02:57.090Z,30.22
2023-06-20T11:05:27.636Z,29.75
2023-06-20T11:07:59.672Z,29.50
2023-06-20T11:10:31.985Z,29.72
2023-06-20T11:13:01.894Z,30.15
2023-06-20T11:15:31.803Z,30.48
2023-06-20T11:18:03.901Z,30.62
2023-06-20T11:20:36.658Z,30.64
2023-06-20T11:23:06.423Z,30.76
2023-06-20T11:25:38.239Z,30.88
2023-06-20T11:28:08.784Z,31.05
2023-06-20T11:30:38.626Z,31.08
2023-06-20T11:33:09.830Z,31.18
2023-06-20T11:35:49.752Z,31.36
2023-06-20T11:38:21.686Z,31.57
2023-06-20T11:41:03.170Z,31.53
2023-06-20T11:43:36.859Z,31.68
2023-06-20T11:46:05.621Z,31.80
2023-06-20T11:48:34.823Z,31.85
2023-06-20T11:51:05.223Z,32.02
2023-06-20T11:53:36.046Z,32.20
2023-06-20T11:58:41.917Z,32.28
2023-06-20T12:01:12.425Z,32.28
2023-06-20T12:03:42.553Z,32.28
2023-06-20T12:06:31.161Z,32.32
2023-06-20T12:09:02.039Z,32.12
2023-06-20T12:11:33.244Z,32.10
2023-06-20T12:14:02.004Z,32.01
2023-06-20T12:16:30.852Z,31.82
2023-06-20T12:19:02.614Z,31.75
2023-06-20T12:21:31.207Z,31.83
2023-06-20T12:24:00.104Z,31.91
2023-06-20T12:26:28.752Z,31.94
2023-06-20T12:28:59.201Z,31.97
2023-06-20T12:31:27.839Z,32.08
2023-06-20T12:33:56.450Z,32.11
2023-06-20T12:36:25.007Z,32.18
2023-06-20T12:38:53.762Z,32.27
2023-06-20T12:41:23.031Z,32.27
2023-06-20T12:43:51.951Z,32.31
2023-06-20T12:46:22.087Z,32.19
2023-06-20T12:48:51.416Z,32.26
2023-06-20T12:51:19.707Z,32.35
2023-06-20T12:53:48.322Z,32.45
2023-06-20T12:56:17.338Z,32.47
2023-06-20T12:58:45.898Z,32.50
2023-06-20T13:01:14.598Z,32.53
2023-06-20T13:03:45.680Z,32.45
2023-06-20T13:06:16.991Z,32.40
2023-06-20T13:08:45.628Z,32.34
2023-06-20T13:11:15.057Z,32.43
2023-06-20T13:13:43.715Z,32.41
2023-06-20T13:16:12.250Z,32.41
2023-06-20T13:18:41.615Z,32.40
2023-06-20T13:21:11.598Z,32.43
2023-06-20T13:23:40.468Z,32.33
2023-06-20T13:26:10.111Z,32.27
2023-06-20T13:28:38.616Z,32.25
2023-06-20T13:31:07.257Z,32.21
2023-06-20T13:33:35.870Z,32.26
2023-06-20T13:36:04.450Z,32.23
2023-06-20T13:38:34.995Z,32.20
2023-06-20T13:41:03.748Z,32.06
2023-06-20T13:43:32.256Z,32.01
2023-06-20T13:46:01.457Z,32.08
2023-06-20T13:48:30.048Z,32.08
2023-06-20T13:50:59.058Z,32.03
2023-06-20T13:53:28.625Z,32.00
2023-06-20T13:55:59.103Z,31.81
2023-06-20T13:58:28.061Z,31.77
2023-06-20T14:00:56.868Z,31.73
2023-06-20T14:03:27.814Z,31.75
2023-06-20T14:05:57.736Z,31.76
2023-06-20T14:08:26.588Z,31.64
2023-06-20T14:10:55.458Z,31.57
2023-06-20T14:13:25.446Z,31.56
2023-06-20T14:15:54.119Z,31.55
2023-06-20T14:18:24.693Z,31.56
2023-06-20T14:20:53.133Z,31.61
2023-06-20T14:23:21.976Z,31.62
2023-06-20T14:25:52.338Z,31.62
2023-06-20T14:28:25.553Z,31.61
2023-06-20T14:30:56.212Z,31.53
2023-06-20T14:33:26.134Z,31.51
2023-06-20T14:35:54.701Z,31.46
2023-06-20T14:38:23.495Z,31.37
2023-06-20T14:40:52.016Z,31.35
2023-06-20T14:43:21.664Z,31.35
2023-06-20T14:45:50.137Z,31.30
2023-06-20T14:48:20.263Z,31.29
2023-06-20T14:50:49.271Z,31.28
2023-06-20T14:53:18.100Z,31.05
2023-06-20T14:55:46.986Z,30.99
2023-06-20T14:58:15.549Z,30.96
2023-06-20T15:00:44.236Z,30.99
2023-06-20T15:03:12.799Z,30.99
2023-06-20T15:05:46.517Z,30.93
2023-06-20T15:08:17.549Z,30.87
2023-06-20T15:10:46.195Z,30.84
2023-06-20T15:13:15.004Z,30.82
2023-06-20T15:15:43.876Z,30.73
2023-06-20T15:18:13.515Z,30.61
2023-06-20T15:20:43.772Z,30.54
2023-06-20T15:23:12.232Z,30.59
2023-06-20T15:25:40.639Z,30.61
2023-06-20T15:28:09.157Z,30.55
2023-06-20T15:30:40.449Z,30.40
2023-06-20T15:33:10.200Z,30.33
2023-06-20T15:35:43.061Z,30.31
2023-06-20T15:38:14.482Z,30.31
2023-06-20T15:40:43.942Z,30.27
2023-06-20T15:43:13.112Z,30.30
2023-06-20T15:45:42.504Z,30.25
2023-06-20T15:48:12.301Z,30.20
2023-06-20T15:50:41.592Z,30.12
2023-06-20T15:53:10.341Z,30.05
2023-06-20T15:55:40.439Z,30.03
2023-06-20T15:58:09.685Z,30.01
2023-06-20T16:00:39.951Z,30.02
2023-06-20T16:03:08.741Z,29.98
2023-06-20T16:05:38.967Z,29.96
2023-06-20T16:08:13.393Z,29.91
2023-06-20T16:10:46.579Z,29.86
2023-06-20T16:13:17.885Z,29.80
2023-06-20T16:15:46.785Z,29.74
2023-06-20T16:18:15.373Z,29.73
2023-06-20T16:20:44.476Z,29.72
2023-06-20T16:23:13.344Z,29.67
2023-06-20T16:25:41.841Z,29.61
2023-06-20T16:28:11.816Z,29.54
2023-06-20T16:30:40.488Z,29.48
2023-06-20T16:33:11.003Z,29.45
2023-06-20T16:35:40.696Z,29.42
2023-06-20T16:38:09.194Z,29.41
2023-06-20T16:40:37.815Z,29.30
2023-06-20T16:43:09.089Z,29.27
2023-06-20T16:45:39.335Z,29.24
2023-06-20T16:48:09.649Z,29.17
2023-06-20T16:50:38.431Z,29.15
2023-06-20T16:53:06.959Z,29.09
2023-06-20T16:55:36.355Z,28.98
2023-06-20T16:58:05.024Z,28.88
2023-06-20T17:00:33.592Z,28.82
2023-06-20T17:03:04.849Z,28.79
2023-06-20T17:05:34.243Z,28.69
2023-06-20T17:08:02.939Z,28.62
2023-06-20T17:10:31.799Z,28.51
2023-06-20T17:13:01.104Z,28.41
2023-06-20T17:15:29.808Z,28.27
2023-06-20T17:18:01.354Z,28.16
2023-06-20T17:20:31.817Z,28.02
2023-06-20T17:23:01.370Z,27.94
2023-06-20T17:25:29.977Z,27.80
2023-06-20T17:27:58.867Z,27.70
2023-06-20T17:30:27.484Z,27.61
2023-06-20T17:32:57.053Z,27.51
2023-06-20T17:35:25.787Z,27.46
2023-06-20T17:37:56.057Z,27.38
2023-06-20T17:40:24.755Z,27.26
2023-06-20T17:42:53.877Z,27.14
2023-06-20T17:45:22.995Z,27.09
2023-06-20T17:47:52.346Z,26.97
2023-06-20T17:50:21.200Z,26.89
2023-06-20T17:52:49.980Z,26.82
2023-06-20T17:55:20.343Z,26.74
2023-06-20T17:58:00.472Z,26.66
2023-06-20T18:00:30.995Z,26.55
2023-06-20T18:03:00.303Z,26.44
2023-06-20T18:05:29.116Z,26.33
2023-06-20T18:07:57.953Z,26.22
2023-06-20T18:10:28.442Z,26.08
2023-06-20T18:12:57.947Z,25.91
2023-06-20T18:15:27.514Z,25.80
2023-06-20T18:17:56.388Z,25.72
2023-06-20T18:20:26.538Z,25.62
2023-06-20T18:22:55.610Z,25.53
2023-06-20T18:25:24.306Z,25.39
2023-06-20T18:27:54.464Z,25.28
2023-06-20T18:30:24.081Z,25.17
2023-06-20T18:32:53.385Z,25.03
2023-06-20T18:35:23.404Z,24.92
2023-06-20T18:37:52.158Z,24.85
2023-06-20T18:40:20.668Z,24.74
2023-06-20T18:42:49.915Z,24.61
2023-06-20T18:45:20.348Z,24.48
2023-06-20T18:47:55.708Z,24.41
2023-06-20T18:50:28.649Z,24.34
2023-06-20T18:53:07.324Z,24.22
2023-06-20T18:55:37.200Z,24.14
2023-06-20T18:58:08.591Z,24.00
2023-06-20T19:00:43.614Z,23.93
2023-06-20T19:03:39.510Z,23.84
2023-06-20T19:06:15.060Z,23.73
2023-06-20T19:08:47.863Z,23.67
2023-06-20T19:11:18.766Z,23.51
2023-06-20T19:13:49.498Z,23.39
2023-06-20T19:16:22.788Z,23.27
2023-06-20T19:18:54.080Z,23.14
2023-06-20T19:21:23.762Z,23.02
2023-06-20T19:23:56.940Z,22.95
2023-06-20T19:26:26.385Z,22.87
2023-06-20T19:28:55.704Z,22.83
2023-06-20T19:31:26.198Z,22.68
2023-06-20T19:33:56.373Z,22.58
2023-06-20T19:36:26.075Z,22.53
2023-06-20T19:38:55.182Z,22.53
2023-06-20T19:41:28.182Z,22.53
2023-06-20T19:43:58.233Z,22.47
2023-06-20T19:46:29.103Z,22.41
2023-06-20T19:49:02.787Z,22.31
2023-06-20T19:51:33.548Z,22.28
2023-06-20T19:54:02.572Z,22.21
2023-06-20T19:56:34.142Z,22.18
2023-06-20T19:59:03.031Z,22.17
2023-06-20T20:01:33.062Z,22.13
2023-06-20T20:04:06.295Z,22.08
2023-06-20T20:06:35.400Z,22.00
2023-06-20T20:09:09.923Z,21.95
2023-06-20T20:11:40.452Z,21.88
2023-06-20T20:14:10.396Z,21.85
2023-06-20T20:16:41.347Z,21.83
2023-06-20T20:19:11.357Z,21.78
2023-06-20T20:21:41.756Z,21.72
2023-06-20T20:24:12.026Z,21.66
2023-06-20T20:26:40.880Z,21.64
2023-06-20T20:29:09.481Z,21.61
2023-06-20T20:31:40.255Z,21.55
2023-06-20T20:34:10.772Z,21.48
2023-06-20T20:36:40.222Z,21.43
2023-06-20T20:39:09.067Z,21.39
2023-06-20T20:41:38.651Z,21.33
2023-06-20T20:44:09.156Z,21.26
2023-06-20T20:46:38.244Z,21.18
2023-06-20T20:49:07.905Z,21.17
2023-06-20T20:51:40.563Z,21.10
2023-06-20T20:54:10.511Z,21.03
2023-06-20T20:56:39.756Z,20.94
2023-06-20T20:59:08.670Z,20.88
2023-06-20T21:01:37.669Z,20.83
2023-06-20T21:04:08.136Z,20.80
2023-06-20T21:06:39.756Z,20.75
2023-06-20T21:09:10.025Z,20.72
2023-06-20T21:11:39.717Z,20.69
2023-06-20T21:14:08.870Z,20.66
2023-06-20T21:16:37.885Z,20.66
2023-06-20T21:19:06.736Z,20.63
2023-06-20T21:21:35.531Z,20.62
2023-06-20T21:24:08.326Z,20.62
2023-06-20T21:26:37.096Z,20.57
2023-06-20T21:29:05.623Z,20.52
2023-06-20T21:31:34.753Z,20.46
2023-06-20T21:34:03.725Z,20.43
2023-06-20T21:36:32.397Z,20.37
2023-06-20T21:39:02.277Z,20.32
2023-06-20T21:41:33.307Z,20.28
2023-06-20T21:44:02.071Z,20.27
2023-06-20T21:46:34.269Z,20.22
2023-06-20T21:49:04.770Z,20.26
2023-06-20T21:51:33.758Z,20.22
2023-06-20T21:54:02.452Z,20.20
2023-06-20T21:56:32.610Z,20.19
2023-06-20T21:59:19.854Z,20.18
2023-06-20T22:01:49.258Z,20.17
2023-06-20T22:04:20.159Z,20.18
2023-06-20T22:06:49.612Z,20.16
2023-06-20T22:09:18.685Z,20.14
2023-06-20T22:11:48.839Z,20.14
2023-06-20T22:14:17.354Z,20.08
2023-06-20T22:16:47.979Z,20.08
2023-06-20T22:19:17.503Z,20.07
2023-06-20T22:21:46.537Z,20.03
2023-06-20T22:24:15.210Z,20.04
2023-06-20T22:26:49.877Z,20.00
2023-06-20T22:29:23.665Z,19.94
2023-06-20T22:31:55.681Z,19.89
2023-06-20T22:34:24.304Z,19.88
2023-06-20T22:36:57.920Z,19.87
2023-06-20T22:39:26.649Z,19.86
2023-06-20T22:41:55.171Z,19.83
2023-06-20T22:44:25.627Z,19.79
2023-06-20T22:46:55.845Z,19.76
2023-06-20T22:49:25.396Z,19.72
2023-06-20T22:51:54.681Z,19.64
2023-06-20T22:54:24.690Z,19.63
2023-06-20T22:56:53.927Z,19.65
2023-06-20T22:59:25.944Z,19.63
2023-06-20T23:01:56.193Z,19.58
2023-06-20T23:14:06.570Z,19.54
2023-06-20T23:16:36.981Z,19.52
2023-06-20T23:19:06.383Z,19.51
2023-06-20T23:21:34.945Z,19.51
2023-06-20T23:24:23.004Z,19.51
2023-06-20T23:26:51.784Z,19.52
2023-06-20T23:29:20.878Z,19.51
2023-06-20T23:31:51.278Z,19.48
2023-06-20T23:34:20.072Z,19.48
2023-06-20T23:36:49.980Z,19.45
2023-06-20T23:39:18.548Z,19.49
2023-06-20T23:41:48.957Z,19.46
2023-06-20T23:44:18.270Z,19.41
2023-06-20T23:46:47.885Z,19.42
2023-06-20T23:49:17.940Z,19.39
2023-06-20T23:51:46.658Z,19.36
2023-06-20T23:54:15.420Z,19.35
2023-06-20T23:56:43.899Z,19.30
2023-06-20T23:59:14.928Z,19.35
